Latest Weather Observations for Cape Moreton

IDQ60801

Issued at 1:02 am EST Monday 8 February 2016 (issued every 30 minutes, with the page automatically refreshed every 10 minutes)

About weather observations | Map of weather stations | Latest weather observations for QLD | Other Formats
Station Details ID: 040043 Name: CAPE MORETON LIGHTHOUSE Lat: -27.03 Lon: 153.47 Height: 99.9 m
Data from the previous 72 hours. | See also: Recent months at Cape Moreton
Date/Time
EST
Temp
°C
App
Temp
°C
Dew
Point
Rel
Hum
%
Delta-T
°C
Wind Press
QNH
hPa
Press
MSL
hPa
Rain
since 9 am
mm
Dir
 
Spd
km/h
Gust
km/h
Spd
kts
Gust
kts
08/01:00am 23.7 18.6 17.7 69 3.8 SSE 41 52 22 28 1014.1 1013.5 0.0
08/12:30am 23.7 19.8 17.9 70 3.6 SSE 35 50 19 27 1014.5 1013.9 0.0
08/12:00am 23.9 18.0 18.1 70 3.7 SSE 46 54 25 29 1014.4 1013.8 0.0
 
Date/Time
EST
Temp
°C
App
Temp
°C
Dew
Point
Rel
Hum
%
Delta-T
°C
Wind Press
QNH
hPa
Press
MSL
hPa
Rain
since 9 am
mm
Dir
 
Spd
km/h
Gust
km/h
Spd
kts
Gust
kts
07/11:30pm 24.1 19.3 19.2 74 3.1 SE 43 50 23 27 1014.8 1014.2 0.0
07/11:00pm 24.1 18.9 19.6 76 2.9 SE 46 56 25 30 1014.3 1013.7 0.0
07/10:30pm 24.2 18.6 19.5 75 3.0 SE 48 56 26 30 1014.6 1014.0 0.0
07/10:00pm 24.2 18.7 19.7 76 2.9 SE 48 57 26 31 1014.4 1013.8 0.0
07/09:30pm 23.9 20.1 20.6 82 2.2 SE 41 54 22 29 1014.6 1014.0 0.0
07/09:00pm 24.2 19.4 19.3 74 3.1 SE 43 52 23 28 1014.4 1013.8 0.0
07/08:30pm 24.5 19.1 20.0 76 2.9 SE 48 57 26 31 1014.0 1013.4 0.0
07/08:00pm 24.4 19.0 20.1 77 2.8 SE 48 54 26 29 1014.0 1013.4 0.0
07/07:30pm 24.3 19.3 20.0 77 2.8 SE 46 56 25 30 1013.9 1013.3 0.0
07/07:00pm 24.4 19.1 20.3 78 2.7 SE 48 57 26 31 1013.5 1012.9 0.0
07/06:30pm 24.3 17.9 19.6 75 3.0 SE 52 61 28 33 1013.1 1012.5 0.0
07/06:00pm 24.4 17.6 18.6 70 3.7 SE 52 63 28 34 1012.5 1012.0 0.0
07/05:30pm 24.4 17.4 19.0 72 3.5 SSE 54 63 29 34 1012.1 1011.6 0.0
07/05:00pm 24.4 17.3 18.8 71 3.6 SSE 54 65 29 35 1011.8 1011.3 0.0
07/04:30pm 24.2 17.0 19.9 77 2.8 SSE 57 67 31 36 1011.6 1011.1 0.0
07/04:00pm 23.8 17.0 20.3 81 2.3 SSE 56 67 30 36 1011.5 1011.0 0.0
07/03:35pm 24.0 19.3 21.5 86 1.7 SSE 48 67 26 36 1011.8 1011.3 0.0
07/03:30pm 23.5 17.7 20.8 85 1.8 SSE 52 67 28 36 1011.6 1011.1 0.0
07/03:22pm 23.6 18.5 20.7 84 1.9 SSE 48 67 26 36 1011.4 1010.9 0.0
07/03:00pm 23.8 18.4 20.7 83 2.0 SSE 50 63 27 34 1011.7 1011.2 0.0
07/02:30pm 24.0 18.4 21.1 84 1.9 SSE 52 65 28 35 1012.0 1011.5 0.0
07/02:00pm 24.0 19.0 21.5 86 1.7 SSE 50 63 27 34 1012.2 1011.7 0.0
07/01:30pm 24.1 19.6 21.0 83 2.0 SSE 46 59 25 32 1012.4 1011.9 0.0
07/01:11pm 23.7 18.6 20.6 83 2.0 SSE 48 67 26 36 1012.4 1011.9 0.0
07/01:00pm 23.7 18.3 20.8 84 1.9 SSE 50 67 27 36 1012.4 1011.9 0.0
07/12:31pm 23.1 18.9 21.0 88 1.4 SSE 44 63 24 34 1012.8 1012.2 0.0
07/12:30pm 23.3 18.9 21.2 88 1.4 SSE 46 63 25 34 1012.8 1012.2 0.0
07/12:01pm 24.4 21.2 22.5 89 1.3 SSE 43 61 23 33 1012.8 1012.2 0.0
07/12:00pm 24.1 20.5 22.0 88 1.4 SSE 44 61 24 33 1012.7 1012.1 0.0
07/11:43am 22.6 18.5 21.9 96 0.5 SSE 46 69 25 37 1012.2 1011.7 0.0
07/11:30am 22.8 16.7 21.6 93 0.8 SSE 56 72 30 39 1012.3 1011.8 0.0
07/11:26am 23.0 18.3 21.5 91 1.0 SSE 48 72 26 39 1012.2 1011.7 0.0
07/11:00am 24.6 21.0 22.1 86 1.7 SSE 44 61 24 33 1012.5 1012.0 0.0
07/10:50am 23.8 20.3 21.9 89 1.3 SSE 43 61 23 33 1012.8 1012.2 0.0
07/10:30am 24.1 20.3 21.6 86 1.7 SSE 44 61 24 33 1012.9 1012.3 0.0
07/10:00am 23.2 19.4 21.3 89 1.3 SSE 43 59 23 32 1012.9 1012.3 0.0
07/09:35am 24.0 20.5 22.3 90 1.1 SSE 44 65 24 35 1012.7 1012.1 0.0
07/09:30am 24.0 20.0 22.1 89 1.3 SSE 46 57 25 31 1012.5 1012.0 0.0
07/09:00am 24.0 18.8 21.9 88 1.4 SSE 52 67 28 36 1012.2 1011.7 1.8
07/08:47am 23.9 19.5 22.0 89 1.3 SSE 48 69 26 37 1012.4 1011.9 1.8
07/08:30am 23.4 17.8 21.8 91 1.1 SSE 54 61 29 33 1012.3 1011.8 1.8
07/08:00am 23.6 18.9 22.2 92 0.9 SSE 50 59 27 32 1012.4 1011.9 1.8
07/07:30am 23.4 18.1 21.8 91 1.1 SSE 52 61 28 33 1011.9 1011.4 1.8
07/07:00am 22.9 17.4 22.1 95 0.5 SSE 54 70 29 38 1012.1 1011.6 1.8
07/06:49am 23.0 18.2 22.0 94 0.7 SE 50 67 27 36 1011.5 1011.0 1.8
07/06:30am 22.7 20.2 22.4 98 0.2 SSE 39 52 21 28 1012.0 1011.5 1.4
07/06:05am 23.1 19.5 21.7 92 0.9 SSE 43 61 23 33 1011.9 1011.4 1.0
07/06:00am 23.4 18.9 21.8 91 1.1 SE 48 61 26 33 1011.8 1011.3 1.0
07/05:30am 22.1 15.9 21.8 98 0.2 SE 57 70 31 38 1010.8 1010.3 0.8
07/05:20am 23.0 18.5 21.8 93 0.8 SE 48 70 26 38 1010.5 1010.0 0.8
07/05:00am 24.2 19.2 20.9 82 2.2 SE 48 57 26 31 1010.6 1010.1 0.2
07/04:30am 24.3 20.4 21.4 84 1.9 SE 44 52 24 28 1010.5 1010.0 0.2
07/04:00am 24.1 20.7 20.6 81 2.3 SE 39 48 21 26 1010.5 1010.0 0.2
07/03:30am 24.3 20.6 20.8 81 2.3 SE 41 48 22 26 1010.5 1010.0 0.2
07/03:00am 24.4 20.8 20.9 81 2.3 SE 41 48 22 26 1010.4 1009.9 0.2
07/02:30am 24.4 20.4 20.1 77 2.8 SE 41 46 22 25 1010.4 1009.9 0.2
07/02:00am 24.4 20.9 20.3 78 2.7 SE 39 44 21 24 1010.6 1010.1 0.2
07/01:30am 24.4 21.0 20.7 80 2.4 ESE 39 46 21 25 1010.5 1010.0 0.2
07/01:00am 24.5 20.1 20.2 77 2.8 SE 43 50 23 27 1010.6 1010.1 0.2
07/12:30am 24.5 21.1 20.6 79 2.6 ESE 39 46 21 25 1010.9 1010.4 0.2
07/12:00am 24.5 20.2 20.4 78 2.7 ESE 43 50 23 27 1011.2 1010.7 0.2
 
Date/Time
EST
Temp
°C
App
Temp
°C
Dew
Point
Rel
Hum
%
Delta-T
°C
Wind Press
QNH
hPa
Press
MSL
hPa
Rain
since 9 am
mm
Dir
 
Spd
km/h
Gust
km/h
Spd
kts
Gust
kts
06/11:30pm 24.5 19.8 19.8 75 3.0 ESE 44 52 24 28 1011.4 1010.9 0.2
06/11:00pm 24.5 20.3 20.6 79 2.6 SE 43 48 23 26 1011.9 1011.4 0.2
06/10:30pm 24.5 20.0 19.8 75 3.0 SE 43 50 23 27 1012.3 1011.8 0.2
06/10:00pm 24.5 18.9 19.6 74 3.2 SE 48 56 26 30 1012.1 1011.6 0.2
06/09:30pm 24.6 19.5 20.7 79 2.6 SE 48 54 26 29 1012.1 1011.6 0.2
06/09:00pm 24.7 20.3 21.2 81 2.3 ESE 46 54 25 29 1011.8 1011.3 0.2
06/08:30pm 24.6 20.6 21.3 82 2.2 ESE 44 56 24 30 1011.4 1010.9 0.2
06/08:00pm 24.6 20.1 21.1 81 2.3 ESE 46 54 25 29 1011.1 1010.6 0.2
06/07:30pm 24.7 20.3 21.2 81 2.3 ESE 46 52 25 28 1010.9 1010.4 0.2
06/07:00pm 24.7 19.9 20.4 77 2.8 ESE 46 56 25 30 1010.4 1009.9 0.2
06/06:30pm 24.7 20.5 21.0 80 2.4 ESE 44 52 24 28 1010.2 1009.7 0.2
06/06:00pm 24.3 19.9 21.2 83 2.1 ESE 46 57 25 31 1009.9 1009.4 0.2
06/05:34pm 24.9 21.1 21.4 81 2.3 ESE 43 63 23 34 1009.5 1009.0 0.2
06/05:30pm 24.9 20.9 21.0 79 2.6 ESE 43 50 23 27 1009.5 1009.0 0.2
06/05:00pm 25.0 20.4 20.9 78 2.7 ESE 46 56 25 30 1009.0 1008.5 0.2
06/04:30pm 25.2 21.8 21.3 79 2.6 ESE 41 50 22 27 1009.1 1008.6 0.2
06/04:16pm 24.7 20.5 20.6 78 2.7 ESE 43 61 23 33 1008.8 1008.3 0.2
06/04:00pm 25.6 22.3 21.5 78 2.7 ESE 41 50 22 27 1009.0 1008.5 0.2
06/03:30pm 25.5 21.8 21.8 80 2.5 ESE 44 50 24 27 1009.0 1008.5 0.2
06/03:00pm 25.7 20.5 20.5 73 3.4 ESE 48 54 26 29 1008.9 1008.4 0.2
06/02:30pm 26.3 21.9 21.3 74 3.3 ESE 46 52 25 28 1009.1 1008.6 0.2
06/02:00pm 26.3 22.6 21.5 75 3.2 ESE 43 52 23 28 1009.4 1008.9 0.2
06/01:30pm 26.0 21.4 20.8 73 3.4 SE 46 54 25 29 1009.4 1008.9 0.2
06/01:00pm 26.6 22.8 21.6 74 3.3 SE 44 54 24 29 1009.5 1009.0 0.2
06/12:30pm 26.4 22.1 21.4 74 3.3 ESE 46 56 25 30 1009.8 1009.3 0.2
06/12:00pm 26.7 21.7 21.5 73 3.5 SE 50 57 27 31 1009.8 1009.3 0.2
06/11:30am 26.9 23.2 21.9 74 3.4 ESE 44 54 24 29 1010.4 1009.9 0.2
06/11:00am 25.6 20.9 20.6 74 3.3 SE 46 57 25 31 1010.6 1010.1 0.0
06/10:30am 25.7 20.6 21.4 77 2.9 SE 50 57 27 31 1010.6 1010.1 0.0
06/10:00am 26.2 20.8 20.8 72 3.6 ESE 50 57 27 31 1010.6 1010.1 0.0
06/09:30am 26.5 22.3 21.7 75 3.2 SE 46 54 25 29 1010.5 1010.0 0.0
06/09:00am 26.0 22.0 22.1 79 2.6 SE 46 56 25 30 1010.5 1010.0 0.4
06/08:30am 25.7 21.0 21.4 77 2.9 SE 48 57 26 31 1010.1 1009.6 0.4
06/08:00am 24.3 19.6 21.4 84 1.9 SE 48 61 26 33 1010.1 1009.6 0.4
06/07:30am 24.9 21.3 22.0 84 1.9 ESE 44 54 24 29 1010.1 1009.6 0.4
06/07:00am 24.7 20.2 21.8 84 1.9 ESE 48 57 26 31 1009.6 1009.1 0.4
06/06:30am 24.0 19.9 21.9 88 1.4 SE 46 59 25 32 1009.2 1008.7 0.4
06/06:00am 24.1 20.0 21.8 87 1.5 ESE 46 56 25 30 1009.2 1008.7 0.4
06/05:30am 23.9 19.5 22.0 89 1.3 ESE 48 57 26 31 1008.4 1007.9 0.4
06/05:00am 23.6 18.8 22.0 91 1.1 ESE 50 57 27 31 1007.9 1007.4 0.4
06/04:37am 23.3 19.6 22.5 95 0.5 SE 46 67 25 36 1007.6 1007.1 0.4
06/04:30am 23.5 19.9 22.8 96 0.5 SE 46 56 25 30 1007.9 1007.4 0.4
06/04:00am 23.8 19.4 22.6 93 0.8 ESE 50 57 27 31 1007.7 1007.2 0.4
06/03:30am 23.1 17.5 21.9 93 0.8 SE 54 65 29 35 1007.1 1006.6 0.4
06/03:00am 23.0 19.0 22.8 99 0.1 ESE 48 59 26 32 1007.4 1006.9 0.4
06/02:30am 23.3 18.2 22.8 97 0.3 SE 54 63 29 34 1007.3 1006.8 0.4
06/02:00am 23.2 18.7 22.5 96 0.5 SE 50 57 27 31 1007.8 1007.3 0.2
06/01:39am 23.2 18.2 22.2 94 0.7 SE 52 72 28 39 1007.6 1007.1 0.2
06/01:30am 23.5 18.2 22.5 94 0.7 SE 54 63 29 34 1007.8 1007.3 0.2
06/01:00am 23.3 17.7 22.6 96 0.5 SE 56 65 30 35 1008.0 1007.5 0.2
06/12:30am 23.6 17.4 22.6 94 0.7 SE 59 72 32 39 1008.1 1007.6 0.2
06/12:26am 23.5 18.0 22.7 95 0.5 SE 56 72 30 39 1008.0 1007.5 0.2
06/12:11am 22.9 18.5 22.7 99 0.1 SE 50 59 27 32 1008.6 1008.1 0.2
06/12:00am 22.3 14.7 22.1 99 0.1 SE 65 87 35 47 1008.8 1008.3 0.2
 
Date/Time
EST
Temp
°C
App
Temp
°C
Dew
Point
Rel
Hum
%
Delta-T
°C
Wind Press
QNH
hPa
Press
MSL
hPa
Rain
since 9 am
mm
Dir
 
Spd
km/h
Gust
km/h
Spd
kts
Gust
kts
05/11:51pm 23.7 17.3 22.1 91 1.1 SE 59 87 32 47 1008.4 1007.9 0.0
05/11:30pm 23.1 16.6 21.9 93 0.8 SE 59 72 32 39 1009.0 1008.5 0.0
05/11:00pm 24.2 17.6 21.7 86 1.7 SE 59 69 32 37 1009.2 1008.7 0.0
05/10:30pm 23.9 17.0 22.0 89 1.3 SE 61 72 33 39 1009.2 1008.7 0.0
05/10:00pm 24.3 16.8 21.6 85 1.8 SE 63 74 34 40 1009.1 1008.6 0.0
05/09:30pm 24.6 17.7 21.9 85 1.8 SE 61 76 33 41 1009.4 1008.9 0.0
05/09:00pm 24.7 16.6 21.8 84 1.9 SE 67 78 36 42 1009.2 1008.7 0.0
05/08:30pm 24.1 17.6 22.0 88 1.4 SE 59 67 32 36 1009.2 1008.7 0.0
05/08:00pm 22.9 18.2 22.9 100 0.0 SE 52 61 28 33 1009.0 1008.5 0.0
05/07:49pm 22.5 14.3 22.3 99 0.1 SE 69 93 37 50 1008.7 1008.2 0.0
05/07:44pm 22.3 12.6 22.0 98 0.2 SE 76 96 41 52 1008.4 1007.9 0.0
05/07:38pm 22.8 14.2 20.9 89 1.2 SE 67 96 36 52 1007.5 1007.0 0.0
05/07:37pm 23.5 15.5 21.2 87 1.5 SE 65 96 35 52 1007.7 1007.2 0.0
05/07:30pm 24.2 17.4 22.1 88 1.4 SE 61 70 33 38 1008.3 1007.8 0.0
05/07:00pm 23.8 16.5 21.9 89 1.3 SE 63 74 34 40 1008.1 1007.6 0.0
05/06:33pm 23.6 16.1 20.7 84 1.9 SE 61 80 33 43 1007.6 1007.1 0.0
05/06:30pm 23.7 16.7 21.8 89 1.3 SE 61 74 33 40 1008.0 1007.5 0.0
05/06:00pm 23.5 16.0 22.3 93 0.8 SE 65 83 35 45 1007.6 1007.1 0.0
05/05:51pm 23.6 16.2 22.4 93 0.8 SE 65 83 35 45 1007.2 1006.7 0.0
05/05:30pm 23.5 15.8 22.5 94 0.7 SSE 67 78 36 42 1007.1 1006.6 0.0
05/05:11pm 23.9 16.7 22.0 89 1.3 SSE 63 83 34 45 1006.6 1006.1 0.0
05/05:00pm 24.0 18.6 23.0 94 0.7 SSE 56 65 30 35 1007.0 1006.5 0.0
05/04:30pm 23.5 17.0 22.7 95 0.5 SSE 61 74 33 40 1006.7 1006.2 0.0
05/04:13pm 23.2 19.0 23.0 99 0.1 SSE 50 69 27 37 1006.7 1006.2 0.0
05/04:10pm 23.1 20.0 22.9 99 0.1 SSE 44 63 24 34 1007.0 1006.5 0.0
05/04:00pm 23.1 19.8 22.6 97 0.3 SSE 44 59 24 32 1007.3 1006.8 0.0
05/03:30pm 23.5 18.3 22.7 95 0.5 SSE 54 69 29 37 1007.1 1006.6 0.0
05/03:03pm 23.9 17.7 22.5 92 0.9 SSE 59 78 32 42 1007.0 1006.5 0.0
05/03:00pm 23.9 16.8 22.3 91 1.1 SSE 63 78 34 42 1007.0 1006.5 0.0
05/02:49pm 24.1 18.3 22.2 89 1.3 SSE 56 74 30 40 1006.7 1006.2 0.0
05/02:33pm 24.3 20.9 22.4 89 1.3 SSE 44 63 24 34 1007.3 1006.8 0.0
05/02:30pm 24.3 20.4 22.2 88 1.4 SSE 46 61 25 33 1007.3 1006.8 0.0
05/02:00pm 24.0 19.8 22.3 90 1.1 SSE 48 67 26 36 1007.3 1006.8 0.0
05/01:36pm 24.1 20.1 22.7 92 0.9 SSE 48 67 26 36 1007.5 1007.0 0.0
05/01:30pm 24.0 20.5 22.3 90 1.1 SSE 44 61 24 33 1007.6 1007.1 0.0
05/01:11pm 23.8 20.0 21.7 88 1.4 SSE 44 65 24 35 1008.0 1007.5 0.0
05/01:00pm 24.1 20.0 21.8 87 1.5 SSE 46 61 25 33 1008.0 1007.5 0.0
05/12:30pm 24.4 19.7 21.5 84 1.9 SSE 48 61 26 33 1008.3 1007.8 0.0
05/12:00pm 24.4 19.1 21.7 85 1.8 SSE 52 65 28 35 1008.3 1007.8 0.0
05/11:30am 24.5 20.5 22.0 86 1.7 SSE 46 65 25 35 1008.7 1008.2 0.0
05/11:00am 24.3 19.9 22.0 87 1.5 SSE 48 61 26 33 1008.8 1008.3 0.0
05/10:30am 24.1 18.8 21.8 87 1.5 SSE 52 59 28 32 1008.8 1008.3 0.0
05/10:00am 23.9 20.2 21.6 87 1.5 SSE 43 54 23 29 1008.9 1008.4 0.0
05/09:30am 23.9 19.8 21.8 88 1.4 SSE 46 61 25 33 1008.6 1008.1 0.0
05/09:00am 23.9 20.8 21.2 85 1.8 SSE 39 54 21 29 1008.7 1008.2 1.0
05/08:30am 23.8 20.3 21.1 85 1.8 SSE 41 59 22 32 1008.4 1007.9 1.0
05/08:06am 23.7 19.8 21.2 86 1.6 SSE 43 61 23 33 1008.0 1007.5 1.0
05/08:00am 23.7 19.4 21.4 87 1.5 SSE 46 61 25 33 1008.1 1007.6 1.0
05/07:30am 23.5 17.9 21.2 87 1.5 SSE 52 65 28 35 1007.7 1007.2 1.0
05/07:00am 23.4 19.2 21.7 90 1.1 SSE 46 61 25 33 1007.6 1007.1 1.0
05/06:30am 23.4 18.0 21.5 89 1.3 SSE 52 61 28 33 1006.9 1006.4 1.0
05/06:00am 23.3 19.1 21.7 91 1.1 SSE 46 61 25 33 1006.6 1006.1 1.0
05/05:30am 23.2 19.8 22.0 93 0.8 SSE 43 56 23 30 1006.0 1005.4 1.0
05/05:00am 23.1 19.7 22.1 94 0.7 SSE 43 54 23 29 1005.8 1005.2 1.0
05/04:30am 22.6 19.2 22.4 99 0.1 SSE 44 56 24 30 1005.5 1004.9 1.0
05/04:00am 23.3 19.6 21.9 92 0.9 SSE 44 56 24 30 1005.4 1004.8 0.8
05/03:30am 23.4 19.6 22.4 94 0.7 SSE 46 56 25 30 1005.4 1004.8 0.8
05/03:00am 23.3 20.4 22.3 94 0.7 SSE 41 56 22 30 1005.3 1004.7 0.8
05/02:30am 23.2 21.3 22.0 93 0.8 SSE 35 46 19 25 1005.9 1005.3 0.8
05/02:00am 23.0 21.6 22.2 95 0.5 S 33 44 18 24 1006.0 1005.4 0.8
05/01:30am 22.9 22.4 22.1 95 0.5 S 28 35 15 19 1006.4 1005.9 0.8

Other Formats:

Comma delimited format used in spreadsheet applications
http://www.bom.gov.au/fwo/IDQ60801/IDQ60801.94594.axf

JavaScript Object Notation format (JSON) in row-major order
http://www.bom.gov.au/fwo/IDQ60801/IDQ60801.94594.json